createdAt,value
2022-09-20T00:00:24.413Z,57.50
2022-09-20T00:03:27.081Z,57.50
2022-09-20T00:06:31.631Z,57.50
2022-09-20T00:09:33.782Z,57.50
2022-09-20T00:12:36.010Z,57.50
2022-09-20T00:15:46.263Z,57.50
2022-09-20T00:18:50.188Z,57.90
2022-09-20T00:21:52.370Z,57.30
2022-09-20T00:24:54.498Z,57.20
2022-09-20T00:27:56.754Z,57.20
2022-09-20T00:30:59.015Z,57.20
2022-09-20T00:34:20.209Z,57.20
2022-09-20T00:37:22.491Z,57.20
2022-09-20T00:40:27.262Z,57.00
2022-09-20T00:43:46.771Z,56.80
2022-09-20T00:46:48.999Z,56.90
2022-09-20T00:49:54.821Z,56.90
2022-09-20T00:53:22.647Z,56.70
2022-09-20T00:56:35.056Z,56.90
2022-09-20T00:59:41.589Z,57.00
2022-09-20T01:02:51.362Z,56.70
2022-09-20T01:05:54.808Z,56.80
2022-09-20T01:09:01.874Z,56.80
2022-09-20T01:12:09.442Z,56.70
2022-09-20T01:15:13.139Z,56.60
2022-09-20T01:18:16.833Z,56.60
2022-09-20T01:21:19.960Z,56.50
2022-09-20T01:24:30.679Z,56.50
2022-09-20T01:27:47.644Z,56.40
2022-09-20T01:31:00.029Z,56.40
2022-09-20T01:34:13.849Z,56.50
2022-09-20T01:37:19.355Z,56.40
2022-09-20T01:40:45.581Z,56.40
2022-09-20T01:43:56.361Z,56.50
2022-09-20T01:47:06.376Z,56.30
2022-09-20T01:50:15.906Z,56.50
2022-09-20T01:53:40.095Z,56.50
2022-09-20T01:56:45.221Z,56.50
2022-09-20T02:00:00.153Z,56.30
2022-09-20T02:03:32.210Z,56.30
2022-09-20T02:06:50.455Z,56.20
2022-09-20T02:10:18.901Z,56.40
2022-09-20T02:13:30.297Z,56.50
2022-09-20T02:17:17.417Z,56.40
2022-09-20T02:20:47.010Z,56.40
2022-09-20T02:23:57.735Z,56.40
2022-09-20T02:27:18.956Z,56.30
2022-09-20T02:30:43.740Z,56.70
2022-09-20T02:34:08.281Z,56.30
2022-09-20T02:37:41.401Z,56.30
2022-09-20T02:41:09.419Z,56.30
2022-09-20T02:44:30.274Z,56.40
2022-09-20T02:47:44.225Z,56.20
2022-09-20T02:51:12.580Z,56.40
2022-09-20T02:54:26.026Z,56.30
2022-09-20T02:57:48.332Z,56.30
2022-09-20T03:01:12.178Z,56.20
2022-09-20T03:04:51.727Z,56.20
2022-09-20T03:08:32.795Z,56.30
2022-09-20T03:12:12.437Z,56.40
2022-09-20T03:15:40.757Z,56.30
2022-09-20T03:18:57.587Z,56.40
2022-09-20T03:22:18.565Z,56.50
2022-09-20T03:25:39.503Z,56.50
2022-09-20T03:29:09.153Z,56.40
2022-09-20T03:32:29.630Z,56.50
2022-09-20T03:35:58.422Z,56.50
2022-09-20T03:39:19.229Z,56.60
2022-09-20T03:42:32.882Z,56.60
2022-09-20T03:45:45.623Z,56.70
2022-09-20T03:48:56.676Z,56.70
2022-09-20T03:52:01.843Z,56.70
2022-09-20T03:55:09.808Z,56.70
2022-09-20T03:58:14.983Z,56.70
2022-09-20T04:01:34.708Z,56.80
2022-09-20T04:04:54.607Z,56.90
2022-09-20T04:08:10.328Z,56.90
2022-09-20T04:11:18.471Z,57.00
2022-09-20T04:14:48.459Z,56.90
2022-09-20T04:18:17.216Z,57.00
2022-09-20T04:21:34.770Z,57.00
2022-09-20T04:24:53.184Z,57.10
2022-09-20T04:27:59.240Z,57.10
2022-09-20T04:31:21.158Z,57.20
2022-09-20T04:34:50.969Z,57.30
2022-09-20T04:37:54.259Z,57.20
2022-09-20T04:41:00.145Z,57.30
2022-09-20T04:44:23.418Z,57.30
2022-09-20T04:47:56.507Z,57.40
2022-09-20T04:51:17.715Z,57.40
2022-09-20T04:54:56.907Z,57.40
2022-09-20T04:58:38.749Z,57.40
2022-09-20T05:02:04.100Z,57.40
2022-09-20T05:05:47.188Z,57.30
2022-09-20T05:09:16.761Z,57.70
2022-09-20T05:12:24.649Z,57.40
2022-09-20T05:15:51.659Z,57.40
2022-09-20T05:18:56.563Z,57.40
2022-09-20T05:22:20.281Z,57.40
2022-09-20T05:25:28.820Z,56.90
2022-09-20T05:28:34.500Z,55.40
2022-09-20T05:31:57.164Z,55.80
2022-09-20T05:35:11.768Z,56.00
2022-09-20T05:38:23.223Z,56.10
2022-09-20T05:41:54.757Z,56.20
2022-09-20T05:45:14.765Z,56.20
2022-09-20T05:48:35.804Z,56.10
2022-09-20T05:51:52.665Z,56.30
2022-09-20T05:55:19.265Z,56.20
2022-09-20T05:58:22.194Z,56.40
2022-09-20T06:01:32.739Z,56.20
2022-09-20T06:05:11.925Z,56.30
2022-09-20T06:08:23.315Z,56.40
2022-09-20T06:11:53.145Z,56.30
2022-09-20T06:15:21.929Z,56.30
2022-09-20T06:18:34.221Z,56.40
2022-09-20T06:21:42.004Z,56.30
2022-09-20T06:25:06.863Z,56.40
2022-09-20T06:28:22.086Z,56.40
2022-09-20T06:31:24.316Z,56.40
2022-09-20T06:34:28.160Z,56.40
2022-09-20T06:38:00.037Z,56.30
2022-09-20T06:41:22.548Z,56.40
2022-09-20T06:44:24.701Z,56.30
2022-09-20T06:47:27.138Z,56.20
2022-09-20T06:50:29.275Z,56.20
2022-09-20T06:53:33.508Z,56.20
2022-09-20T06:56:36.906Z,56.30
2022-09-20T06:59:39.161Z,56.20
2022-09-20T07:02:41.727Z,56.20
2022-09-20T07:05:43.840Z,56.10
2022-09-20T07:08:46.915Z,56.10
2022-09-20T07:11:49.029Z,56.00
2022-09-20T07:14:51.627Z,56.10
2022-09-20T07:17:53.889Z,56.20
2022-09-20T07:20:58.850Z,56.10
2022-09-20T07:24:02.134Z,56.10
2022-09-20T07:27:05.384Z,56.00
2022-09-20T07:30:10.823Z,56.00
2022-09-20T07:33:17.275Z,56.00
2022-09-20T07:36:19.828Z,56.10
2022-09-20T07:39:21.987Z,56.00
2022-09-20T07:42:24.148Z,55.90
2022-09-20T07:45:26.432Z,55.70
2022-09-20T07:48:35.212Z,55.70
2022-09-20T07:51:37.540Z,55.70
2022-09-20T07:54:40.008Z,55.70
2022-09-20T07:57:42.964Z,55.70
2022-09-20T08:00:45.265Z,55.60
2022-09-20T08:03:47.430Z,55.60
2022-09-20T08:06:49.574Z,55.60
2022-09-20T08:09:52.023Z,55.70
2022-09-20T08:16:17.554Z,55.80
2022-09-20T08:19:21.928Z,55.80
2022-09-20T08:22:24.822Z,55.80
2022-09-20T08:25:27.021Z,55.80
2022-09-20T08:28:33.248Z,55.80
2022-09-20T08:31:39.079Z,55.80
2022-09-20T08:34:41.253Z,56.00
2022-09-20T08:37:46.474Z,56.00
2022-09-20T08:40:49.614Z,56.00
2022-09-20T08:43:56.016Z,56.20
2022-09-20T08:47:22.729Z,56.30
2022-09-20T08:50:25.058Z,57.00
2022-09-20T08:53:29.093Z,56.60
2022-09-20T08:56:37.535Z,56.60
2022-09-20T08:59:40.961Z,56.80
2022-09-20T09:02:43.111Z,56.80
2022-09-20T09:05:49.297Z,56.80
2022-09-20T09:08:53.475Z,56.90
2022-09-20T09:11:58.607Z,57.00
2022-09-20T09:15:19.737Z,57.00
2022-09-20T09:18:22.090Z,57.00
2022-09-20T09:21:27.080Z,57.10
2022-09-20T09:24:31.531Z,57.10
2022-09-20T09:27:35.262Z,57.20
2022-09-20T09:30:43.428Z,57.30
2022-09-20T09:33:47.073Z,57.40
2022-09-20T09:36:49.278Z,57.40
2022-09-20T09:40:10.317Z,57.40
2022-09-20T09:43:23.457Z,57.50
2022-09-20T09:46:27.596Z,57.60
2022-09-20T09:49:36.076Z,57.60
2022-09-20T09:52:38.608Z,57.60
2022-09-20T09:56:14.735Z,57.60
2022-09-20T09:59:56.047Z,57.70
2022-09-20T10:03:17.247Z,57.70
2022-09-20T10:06:38.470Z,57.80
2022-09-20T10:09:59.316Z,57.70
2022-09-20T10:13:18.561Z,57.70
2022-09-20T10:16:29.339Z,57.80
2022-09-20T10:19:46.698Z,57.80
2022-09-20T10:24:01.448Z,57.80
2022-09-20T10:26:44.272Z,57.90
2022-09-20T10:30:02.993Z,57.80
2022-09-20T10:33:46.547Z,57.90
2022-09-20T10:36:57.656Z,57.90
2022-09-20T10:40:26.329Z,57.90
2022-09-20T10:43:34.025Z,57.90
2022-09-20T10:47:08.039Z,58.00
2022-09-20T10:50:29.323Z,58.00
2022-09-20T10:53:49.963Z,58.00
2022-09-20T10:57:10.511Z,58.00
2022-09-20T11:00:32.455Z,58.00
2022-09-20T11:04:02.030Z,58.00
2022-09-20T11:07:10.057Z,58.10
2022-09-20T11:10:17.320Z,58.10
2022-09-20T11:13:33.157Z,58.20
2022-09-20T11:17:20.512Z,58.20
2022-09-20T11:20:28.337Z,58.20
2022-09-20T11:23:43.380Z,58.20
2022-09-20T11:26:52.509Z,58.20
2022-09-20T11:29:57.702Z,58.30
2022-09-20T11:33:05.685Z,58.30
2022-09-20T11:36:15.437Z,58.30
2022-09-20T11:39:32.823Z,58.30
2022-09-20T11:42:38.704Z,58.30
2022-09-20T11:45:44.331Z,58.40
2022-09-20T11:49:09.423Z,58.40
2022-09-20T11:53:08.565Z,58.50
2022-09-20T11:56:26.130Z,58.50
2022-09-20T11:59:34.711Z,58.40
2022-09-20T12:02:53.321Z,58.40
2022-09-20T12:06:26.323Z,58.50
2022-09-20T12:09:36.737Z,58.50
2022-09-20T12:12:47.092Z,58.50
2022-09-20T12:15:59.768Z,58.60
2022-09-20T12:19:10.507Z,58.60
2022-09-20T12:22:25.781Z,58.60
2022-09-20T12:26:02.145Z,58.70
2022-09-20T12:29:29.445Z,58.70
2022-09-20T12:32:39.001Z,58.70
2022-09-20T12:35:58.092Z,58.80
2022-09-20T12:39:13.618Z,58.70
2022-09-20T12:42:30.631Z,58.70
2022-09-20T12:45:32.846Z,58.80
2022-09-20T12:48:37.993Z,58.70
2022-09-20T12:51:59.450Z,58.80
2022-09-20T12:55:04.622Z,58.70
2022-09-20T12:58:15.313Z,58.80
2022-09-20T13:01:17.457Z,58.80
2022-09-20T13:04:51.447Z,58.80
2022-09-20T13:08:00.430Z,58.80
2022-09-20T13:11:19.467Z,58.90
2022-09-20T13:14:29.041Z,58.90
2022-09-20T13:17:32.204Z,58.90
2022-09-20T13:20:35.626Z,58.90
2022-09-20T13:23:48.760Z,58.90
2022-09-20T13:26:54.028Z,58.80
2022-09-20T13:30:08.898Z,58.80
2022-09-20T13:33:25.628Z,58.90
2022-09-20T13:36:31.788Z,58.90
2022-09-20T13:39:36.914Z,58.90
2022-09-20T13:42:39.066Z,59.00
2022-09-20T13:45:43.559Z,58.90
2022-09-20T13:48:54.338Z,59.00
2022-09-20T13:51:56.854Z,58.80
2022-09-20T13:54:59.304Z,58.70
2022-09-20T13:58:07.554Z,58.70
2022-09-20T14:01:28.134Z,58.70
2022-09-20T14:04:31.951Z,58.60
2022-09-20T14:07:36.513Z,59.20
2022-09-20T14:10:43.806Z,58.50
2022-09-20T14:13:50.578Z,58.50
2022-09-20T14:16:55.247Z,58.50
2022-09-20T14:19:58.456Z,58.40
2022-09-20T14:23:01.538Z,58.40
2022-09-20T14:26:16.602Z,58.40
2022-09-20T14:29:33.742Z,58.40
2022-09-20T14:32:38.259Z,58.40
2022-09-20T14:35:50.453Z,58.40
2022-09-20T14:38:55.660Z,58.40
2022-09-20T14:41:57.902Z,58.40
2022-09-20T14:45:00.567Z,59.00
2022-09-20T14:48:11.208Z,58.50
2022-09-20T14:51:17.543Z,58.50
2022-09-20T14:54:30.191Z,58.50
2022-09-20T14:57:32.544Z,58.60
2022-09-20T15:00:54.424Z,58.60
2022-09-20T15:03:57.841Z,58.60
2022-09-20T15:07:06.360Z,58.60
2022-09-20T15:10:13.089Z,58.60
2022-09-20T15:13:15.574Z,58.60
2022-09-20T15:16:20.615Z,58.70
2022-09-20T15:19:22.802Z,58.60
2022-09-20T15:22:24.985Z,58.70
2022-09-20T15:25:29.927Z,58.70
2022-09-20T15:28:33.709Z,58.70
2022-09-20T15:31:35.888Z,58.70
2022-09-20T15:34:38.587Z,58.70
2022-09-20T15:37:41.121Z,58.70
2022-09-20T15:40:48.260Z,58.70
2022-09-20T15:43:50.444Z,58.70
2022-09-20T15:46:53.408Z,58.80
2022-09-20T15:49:55.489Z,58.80
2022-09-20T15:53:00.176Z,58.80
2022-09-20T15:56:04.525Z,58.90
2022-09-20T15:59:11.387Z,58.90
2022-09-20T16:02:13.751Z,58.90
2022-09-20T16:05:17.066Z,58.90
2022-09-20T16:08:19.376Z,59.60
2022-09-20T16:11:23.082Z,59.60
2022-09-20T16:14:25.597Z,59.00
2022-09-20T16:17:46.356Z,59.00
2022-09-20T16:20:48.861Z,59.00
2022-09-20T16:23:54.024Z,59.10
2022-09-20T16:26:57.429Z,59.20
2022-09-20T16:29:59.755Z,59.20
2022-09-20T16:33:05.642Z,59.20
2022-09-20T16:36:07.810Z,59.20
2022-09-20T16:39:11.186Z,59.20
2022-09-20T16:42:13.566Z,59.20
2022-09-20T16:45:15.997Z,59.30
2022-09-20T16:48:18.118Z,59.30
2022-09-20T16:51:26.072Z,59.40
2022-09-20T16:54:31.769Z,59.40
2022-09-20T16:57:34.291Z,59.40
2022-09-20T17:00:36.461Z,59.40
2022-09-20T17:03:40.933Z,59.40
2022-09-20T17:06:45.741Z,59.40
2022-09-20T17:09:47.876Z,59.50
2022-09-20T17:12:52.746Z,59.50
2022-09-20T17:16:25.485Z,59.40
2022-09-20T17:19:27.917Z,59.50
2022-09-20T17:22:30.092Z,59.50
2022-09-20T17:25:32.438Z,59.50
2022-09-20T17:28:39.310Z,59.50
2022-09-20T17:31:44.353Z,59.40
2022-09-20T17:34:46.739Z,59.50
2022-09-20T17:37:49.005Z,59.50
2022-09-20T17:41:00.600Z,59.50
2022-09-20T17:44:08.091Z,59.50
2022-09-20T17:47:10.317Z,59.60
2022-09-20T17:50:14.934Z,59.60
2022-09-20T17:53:17.044Z,59.60
2022-09-20T17:56:23.364Z,59.60
2022-09-20T17:59:25.589Z,59.60
2022-09-20T18:02:27.876Z,59.60
2022-09-20T18:05:29.966Z,59.60
2022-09-20T18:08:32.074Z,59.60
2022-09-20T18:11:37.513Z,59.60
2022-09-20T18:14:39.833Z,59.60
2022-09-20T18:17:42.188Z,59.60
2022-09-20T18:20:44.348Z,59.60
2022-09-20T18:23:47.868Z,59.60
2022-09-20T18:26:49.995Z,59.60
2022-09-20T18:29:52.152Z,59.70
2022-09-20T18:32:54.306Z,59.70
2022-09-20T18:36:02.592Z,59.80
2022-09-20T18:39:04.833Z,59.80
2022-09-20T18:42:08.073Z,59.90
2022-09-20T18:45:10.636Z,59.90
2022-09-20T18:48:12.750Z,59.90
2022-09-20T18:51:16.026Z,60.00
2022-09-20T18:54:19.035Z,60.10
2022-09-20T18:57:21.526Z,60.00
2022-09-20T19:00:23.739Z,60.10
2022-09-20T19:03:46.201Z,60.10
2022-09-20T19:07:11.221Z,60.20
2022-09-20T19:10:41.456Z,60.20
2022-09-20T19:13:52.311Z,60.40
2022-09-20T19:17:01.160Z,60.40
2022-09-20T19:20:22.615Z,60.60
2022-09-20T19:24:18.907Z,60.60
2022-09-20T19:27:21.218Z,60.50
2022-09-20T19:30:24.033Z,60.60
2022-09-20T19:33:28.086Z,60.70
2022-09-20T19:37:02.626Z,60.90
2022-09-20T19:40:04.778Z,60.80
2022-09-20T19:43:25.599Z,61.00
2022-09-20T19:46:58.413Z,60.90
2022-09-20T19:50:36.235Z,61.10
2022-09-20T19:53:39.387Z,61.00
2022-09-20T19:56:57.153Z,61.20
2022-09-20T19:59:59.706Z,61.10
2022-09-20T20:03:02.735Z,61.20
2022-09-20T20:06:17.691Z,61.40
2022-09-20T20:09:47.918Z,61.30
2022-09-20T20:13:04.526Z,61.40
2022-09-20T20:16:14.511Z,61.30
2022-09-20T20:19:34.837Z,61.30
2022-09-20T20:22:58.520Z,61.30
2022-09-20T20:26:32.638Z,61.30
2022-09-20T20:29:34.965Z,61.40
2022-09-20T20:32:37.221Z,61.50
2022-09-20T20:35:39.417Z,61.40
2022-09-20T20:38:46.440Z,61.50
2022-09-20T20:41:52.707Z,61.60
2022-09-20T20:44:54.815Z,61.60
2022-09-20T20:47:58.691Z,61.50
2022-09-20T20:51:08.026Z,61.50
2022-09-20T20:54:10.474Z,61.60
2022-09-20T20:57:12.591Z,61.70
2022-09-20T21:00:15.401Z,61.60
2022-09-20T21:03:17.506Z,61.80
2022-09-20T21:06:21.623Z,61.70
2022-09-20T21:09:23.889Z,61.80
2022-09-20T21:12:26.956Z,61.70
2022-09-20T21:15:29.108Z,61.80
2022-09-20T21:18:31.948Z,61.80
2022-09-20T21:21:36.848Z,61.90
2022-09-20T21:24:38.947Z,61.80
2022-09-20T21:27:41.070Z,61.80
2022-09-20T21:30:43.215Z,61.90
2022-09-20T21:33:45.624Z,61.80
2022-09-20T21:36:47.759Z,61.80
2022-09-20T21:39:50.031Z,61.90
2022-09-20T21:42:52.483Z,61.90
2022-09-20T21:45:58.914Z,61.90
2022-09-20T21:49:05.976Z,62.70
2022-09-20T21:52:08.158Z,61.90
2022-09-20T21:55:10.866Z,61.70
2022-09-20T21:58:13.042Z,61.90
2022-09-20T22:01:18.545Z,61.70
2022-09-20T22:04:20.858Z,61.90
2022-09-20T22:07:23.332Z,61.80
2022-09-20T22:10:26.777Z,61.90
2022-09-20T22:13:28.997Z,61.90
2022-09-20T22:16:33.093Z,61.80
2022-09-20T22:19:35.178Z,61.90
2022-09-20T22:22:37.368Z,61.90
2022-09-20T22:25:39.480Z,61.80
2022-09-20T22:28:42.254Z,61.90
2022-09-20T22:31:46.164Z,62.30
2022-09-20T22:34:48.284Z,61.80
2022-09-20T22:37:50.395Z,61.90
2022-09-20T22:40:56.916Z,61.90
2022-09-20T22:43:59.064Z,61.90
2022-09-20T22:47:01.097Z,62.00
2022-09-20T22:50:03.313Z,61.90
2022-09-20T22:53:05.460Z,61.90
2022-09-20T22:56:19.518Z,61.90
2022-09-20T22:59:21.560Z,61.90
2022-09-20T23:02:23.720Z,61.90
2022-09-20T23:05:27.004Z,61.90
2022-09-20T23:08:32.059Z,62.00
2022-09-20T23:11:35.163Z,61.90
2022-09-20T23:14:37.267Z,62.00
2022-09-20T23:17:42.027Z,61.90
2022-09-20T23:20:44.078Z,62.00
2022-09-20T23:23:47.187Z,62.60
2022-09-20T23:26:49.279Z,61.90
2022-09-20T23:29:51.412Z,61.90
2022-09-20T23:32:56.320Z,61.90
2022-09-20T23:35:58.548Z,61.90
2022-09-20T23:39:00.700Z,61.90
2022-09-20T23:42:02.947Z,62.00
2022-09-20T23:45:05.574Z,62.00
2022-09-20T23:48:07.809Z,62.00
2022-09-20T23:51:12.036Z,62.00
2022-09-20T23:54:14.183Z,62.10
2022-09-20T23:57:17.273Z,62.10
